Grass Range, MT

4:20 AM MDT on August 26, 2016 (GMT -0600)
5E Ranch | | Change Station

Elev 4501 ft 46.86 °N, 108.85 °W | Updated 56 seconds ago

Clear
Clear
47.2 °F
Feels Like 47 °F
N
3.0
Wind Variable Wind from West
Gusts 6.0 mph

Today
High -- | Low -- °F
--% Chance of Precip.
Yesterday
High -- | Low -- °F
Precip. -- in
Pressure 30.11 in
Visibility 10.0 miles
Clouds Clear
Windchill 47 °F
Dew Point 35 °F
Humidity 62%
Rainfall 0.00 in
Snow Depth Not available.
6:27 AM 8:05 PM
Waning Crescent, 36% visible
METAR KLWT 260954Z AUTO 23010KT 10SM CLR 07/03 A3016 RMK AO2 SLP196 T00720033
Pressure 30.11 in
Visibility 10.0 miles
Clouds Clear
Windchill 47 °F
Dew Point 35 °F
Humidity 62%
Rainfall 0.00 in
Snow Depth Not available.
6:27 AM 8:05 PM
Waning Crescent, 36% visible
METAR KLWT 260954Z AUTO 23010KT 10SM CLR 07/03 A3016 RMK AO2 SLP196 T00720033

10-Day Weather Forecast

Almanac

Astronomy

Aug. 26, 2016 Rise Set
Actual Time
Civil Twilight
Nautical Twilight
Astronomical Twilight
Moon
Length of Visible Light
Length of Day
Tomorrow will be .
, % of the Moon is Illuminated

Today's Extremes

State Highs State Lows

Community

WunderPhotos

Upload Photos

1,935,069 photos uploaded!

WunderBlog® & News

Nearby

Air Quality

  Air Quality AQ Index Pollutant
Not available.

Snow Depth

Station Depth Elevation

Earthquake Activity

City Distance Mag. Time & Date
Minimum magnitude displayed is 2.5.

Coastal Water Temperatures

Place Temperature

Stations

Nearby Weather Stations

Station Location Temp. Windchill Dew Point Humidity Wind Precip. Elev Updated Type
                   

Watches & Warnings

There are currently no watches in effect.